sensor_id;sensor_type;location;lat;lon;timestamp;P1;durP1;ratioP1;P2;durP2;ratioP2
10041;SDS011;5061;49.068;12.058;2024-02-04T00:01:15;3.40;;;2.37;;
10041;SDS011;5061;49.068;12.058;2024-02-04T00:04:35;3.40;;;2.53;;
10041;SDS011;5061;49.068;12.058;2024-02-04T00:07:56;3.93;;;2.83;;
10041;SDS011;5061;49.068;12.058;2024-02-04T00:11:16;2.33;;;2.00;;
10041;SDS011;5061;49.068;12.058;2024-02-04T00:14:37;2.43;;;2.10;;
10041;SDS011;5061;49.068;12.058;2024-02-04T00:17:57;6.77;;;2.50;;
10041;SDS011;5061;49.068;12.058;2024-02-04T00:21:18;7.30;;;2.00;;
10041;SDS011;5061;49.068;12.058;2024-02-04T00:24:39;3.20;;;2.87;;
10041;SDS011;5061;49.068;12.058;2024-02-04T00:27:59;3.20;;;2.27;;
10041;SDS011;5061;49.068;12.058;2024-02-04T00:31:20;2.20;;;2.00;;
10041;SDS011;5061;49.068;12.058;2024-02-04T00:34:41;2.60;;;2.17;;
10041;SDS011;5061;49.068;12.058;2024-02-04T00:38:01;5.37;;;2.50;;
10041;SDS011;5061;49.068;12.058;2024-02-04T00:41:23;3.13;;;2.70;;
10041;SDS011;5061;49.068;12.058;2024-02-04T00:44:43;4.70;;;2.40;;
10041;SDS011;5061;49.068;12.058;2024-02-04T00:48:04;6.20;;;2.30;;
10041;SDS011;5061;49.068;12.058;2024-02-04T00:51:25;3.03;;;2.17;;
10041;SDS011;5061;49.068;12.058;2024-02-04T00:54:45;2.67;;;2.30;;
10041;SDS011;5061;49.068;12.058;2024-02-04T00:58:06;3.00;;;2.00;;
10041;SDS011;5061;49.068;12.058;2024-02-04T01:01:26;2.10;;;1.90;;
10041;SDS011;5061;49.068;12.058;2024-02-04T01:04:47;2.97;;;2.20;;
10041;SDS011;5061;49.068;12.058;2024-02-04T01:08:10;2.20;;;1.93;;
10041;SDS011;5061;49.068;12.058;2024-02-04T01:11:31;2.97;;;2.40;;
10041;SDS011;5061;49.068;12.058;2024-02-04T01:14:51;1.90;;;1.70;;
10041;SDS011;5061;49.068;12.058;2024-02-04T01:18:12;2.13;;;1.80;;
10041;SDS011;5061;49.068;12.058;2024-02-04T01:21:32;2.00;;;1.60;;
10041;SDS011;5061;49.068;12.058;2024-02-04T01:24:53;13.40;;;1.90;;
10041;SDS011;5061;49.068;12.058;2024-02-04T01:28:14;2.80;;;2.10;;
10041;SDS011;5061;49.068;12.058;2024-02-04T01:31:34;2.50;;;1.67;;
10041;SDS011;5061;49.068;12.058;2024-02-04T01:34:55;1.77;;;1.63;;
10041;SDS011;5061;49.068;12.058;2024-02-04T01:38:16;1.47;;;1.37;;
10041;SDS011;5061;49.068;12.058;2024-02-04T01:41:36;2.83;;;1.97;;
10041;SDS011;5061;49.068;12.058;2024-02-04T01:44:58;2.80;;;1.60;;
10041;SDS011;5061;49.068;12.058;2024-02-04T01:48:19;1.77;;;1.40;;
10041;SDS011;5061;49.068;12.058;2024-02-04T01:51:40;3.30;;;1.67;;
10041;SDS011;5061;49.068;12.058;2024-02-04T01:55:01;1.57;;;1.47;;
10041;SDS011;5061;49.068;12.058;2024-02-04T01:58:24;1.63;;;1.53;;
10041;SDS011;5061;49.068;12.058;2024-02-04T02:01:45;1.40;;;1.30;;
10041;SDS011;5061;49.068;12.058;2024-02-04T02:05:07;1.70;;;1.60;;
10041;SDS011;5061;49.068;12.058;2024-02-04T02:08:29;2.20;;;1.57;;
10041;SDS011;5061;49.068;12.058;2024-02-04T02:11:52;3.77;;;1.50;;
10041;SDS011;5061;49.068;12.058;2024-02-04T02:15:21;2.37;;;1.63;;
10041;SDS011;5061;49.068;12.058;2024-02-04T02:18:47;2.40;;;1.33;;
10041;SDS011;5061;49.068;12.058;2024-02-04T02:22:18;2.63;;;1.67;;
10041;SDS011;5061;49.068;12.058;2024-02-04T02:25:48;3.70;;;1.40;;
10041;SDS011;5061;49.068;12.058;2024-02-04T02:29:10;1.40;;;1.23;;
10041;SDS011;5061;49.068;12.058;2024-02-04T02:32:30;1.73;;;1.33;;
10041;SDS011;5061;49.068;12.058;2024-02-04T02:35:53;2.60;;;1.40;;
10041;SDS011;5061;49.068;12.058;2024-02-04T02:39:23;1.27;;;1.17;;
10041;SDS011;5061;49.068;12.058;2024-02-04T02:42:47;1.17;;;1.07;;
10041;SDS011;5061;49.068;12.058;2024-02-04T02:46:08;1.53;;;1.40;;
10041;SDS011;5061;49.068;12.058;2024-02-04T02:49:29;4.00;;;1.30;;
10041;SDS011;5061;49.068;12.058;2024-02-04T02:52:50;1.63;;;1.30;;
10041;SDS011;5061;49.068;12.058;2024-02-04T02:56:11;1.33;;;1.23;;
10041;SDS011;5061;49.068;12.058;2024-02-04T02:59:31;1.50;;;1.40;;
10041;SDS011;5061;49.068;12.058;2024-02-04T03:02:52;1.90;;;1.80;;
10041;SDS011;5061;49.068;12.058;2024-02-04T03:06:13;1.83;;;1.30;;
10041;SDS011;5061;49.068;12.058;2024-02-04T03:09:33;1.20;;;1.10;;
10041;SDS011;5061;49.068;12.058;2024-02-04T03:12:54;1.80;;;1.60;;
10041;SDS011;5061;49.068;12.058;2024-02-04T03:16:14;1.20;;;1.10;;
10041;SDS011;5061;49.068;12.058;2024-02-04T03:19:35;1.33;;;0.90;;
10041;SDS011;5061;49.068;12.058;2024-02-04T03:22:56;1.30;;;1.20;;
10041;SDS011;5061;49.068;12.058;2024-02-04T03:26:17;1.10;;;1.00;;
10041;SDS011;5061;49.068;12.058;2024-02-04T03:29:40;1.10;;;0.97;;
10041;SDS011;5061;49.068;12.058;2024-02-04T03:33:01;1.27;;;1.00;;
10041;SDS011;5061;49.068;12.058;2024-02-04T03:36:22;1.70;;;1.30;;
10041;SDS011;5061;49.068;12.058;2024-02-04T03:39:44;1.90;;;1.07;;
10041;SDS011;5061;49.068;12.058;2024-02-04T03:43:04;2.10;;;1.23;;
10041;SDS011;5061;49.068;12.058;2024-02-04T03:46:25;1.37;;;1.00;;
10041;SDS011;5061;49.068;12.058;2024-02-04T03:49:45;1.10;;;1.00;;
10041;SDS011;5061;49.068;12.058;2024-02-04T03:53:06;2.13;;;1.30;;
10041;SDS011;5061;49.068;12.058;2024-02-04T03:56:28;1.13;;;1.00;;
10041;SDS011;5061;49.068;12.058;2024-02-04T03:59:48;0.90;;;0.80;;
10041;SDS011;5061;49.068;12.058;2024-02-04T04:03:09;0.80;;;0.80;;
10041;SDS011;5061;49.068;12.058;2024-02-04T04:06:29;0.90;;;0.80;;
10041;SDS011;5061;49.068;12.058;2024-02-04T04:09:50;4.47;;;1.10;;
10041;SDS011;5061;49.068;12.058;2024-02-04T04:13:11;0.80;;;0.80;;
10041;SDS011;5061;49.068;12.058;2024-02-04T04:16:31;1.00;;;1.00;;
10041;SDS011;5061;49.068;12.058;2024-02-04T04:19:52;1.37;;;0.80;;
10041;SDS011;5061;49.068;12.058;2024-02-04T04:23:22;1.03;;;0.93;;
10041;SDS011;5061;49.068;12.058;2024-02-04T04:26:42;1.00;;;0.93;;
10041;SDS011;5061;49.068;12.058;2024-02-04T04:30:03;1.00;;;0.90;;
10041;SDS011;5061;49.068;12.058;2024-02-04T04:33:24;1.20;;;1.03;;
10041;SDS011;5061;49.068;12.058;2024-02-04T04:36:45;1.83;;;1.30;;
10041;SDS011;5061;49.068;12.058;2024-02-04T04:40:06;2.00;;;1.20;;
10041;SDS011;5061;49.068;12.058;2024-02-04T04:43:27;1.30;;;1.20;;
10041;SDS011;5061;49.068;12.058;2024-02-04T04:46:48;1.50;;;1.20;;
10041;SDS011;5061;49.068;12.058;2024-02-04T04:50:08;1.40;;;1.30;;
10041;SDS011;5061;49.068;12.058;2024-02-04T04:53:29;1.30;;;1.20;;
10041;SDS011;5061;49.068;12.058;2024-02-04T04:56:49;1.40;;;1.30;;
10041;SDS011;5061;49.068;12.058;2024-02-04T05:00:10;1.30;;;1.20;;
10041;SDS011;5061;49.068;12.058;2024-02-04T05:03:32;1.50;;;1.40;;
10041;SDS011;5061;49.068;12.058;2024-02-04T05:06:53;1.37;;;1.20;;
10041;SDS011;5061;49.068;12.058;2024-02-04T05:10:14;3.07;;;1.40;;
10041;SDS011;5061;49.068;12.058;2024-02-04T05:13:34;2.00;;;1.80;;
10041;SDS011;5061;49.068;12.058;2024-02-04T05:16:55;2.03;;;1.47;;
10041;SDS011;5061;49.068;12.058;2024-02-04T05:20:15;2.03;;;1.70;;
10041;SDS011;5061;49.068;12.058;2024-02-04T05:23:36;1.90;;;1.70;;
10041;SDS011;5061;49.068;12.058;2024-02-04T05:26:57;1.47;;;1.37;;
10041;SDS011;5061;49.068;12.058;2024-02-04T05:30:18;1.67;;;1.57;;
10041;SDS011;5061;49.068;12.058;2024-02-04T05:33:38;3.40;;;1.70;;
10041;SDS011;5061;49.068;12.058;2024-02-04T05:36:59;1.40;;;1.30;;
10041;SDS011;5061;49.068;12.058;2024-02-04T05:40:20;2.10;;;1.33;;
10041;SDS011;5061;49.068;12.058;2024-02-04T05:43:40;1.90;;;1.80;;
10041;SDS011;5061;49.068;12.058;2024-02-04T05:47:01;1.40;;;1.30;;
10041;SDS011;5061;49.068;12.058;2024-02-04T05:50:22;1.40;;;1.30;;
10041;SDS011;5061;49.068;12.058;2024-02-04T05:53:42;1.37;;;1.23;;
10041;SDS011;5061;49.068;12.058;2024-02-04T05:57:03;1.20;;;1.10;;
10041;SDS011;5061;49.068;12.058;2024-02-04T06:00:24;1.40;;;1.30;;
10041;SDS011;5061;49.068;12.058;2024-02-04T06:03:45;1.43;;;1.33;;
10041;SDS011;5061;49.068;12.058;2024-02-04T06:07:06;1.33;;;1.20;;
10041;SDS011;5061;49.068;12.058;2024-02-04T06:10:26;1.30;;;1.20;;
10041;SDS011;5061;49.068;12.058;2024-02-04T06:13:47;1.30;;;1.20;;
10041;SDS011;5061;49.068;12.058;2024-02-04T06:17:08;1.30;;;1.10;;
10041;SDS011;5061;49.068;12.058;2024-02-04T06:20:28;1.50;;;1.40;;
10041;SDS011;5061;49.068;12.058;2024-02-04T06:23:49;1.43;;;1.33;;
10041;SDS011;5061;49.068;12.058;2024-02-04T06:27:10;1.00;;;0.93;;
10041;SDS011;5061;49.068;12.058;2024-02-04T06:30:31;3.63;;;1.20;;
10041;SDS011;5061;49.068;12.058;2024-02-04T06:33:51;0.90;;;0.80;;
10041;SDS011;5061;49.068;12.058;2024-02-04T06:37:12;0.90;;;0.87;;
10041;SDS011;5061;49.068;12.058;2024-02-04T06:40:33;1.13;;;1.03;;
10041;SDS011;5061;49.068;12.058;2024-02-04T06:43:53;3.53;;;0.90;;
10041;SDS011;5061;49.068;12.058;2024-02-04T06:47:14;1.20;;;1.10;;
10041;SDS011;5061;49.068;12.058;2024-02-04T06:50:35;1.10;;;1.00;;
10041;SDS011;5061;49.068;12.058;2024-02-04T06:53:56;1.13;;;1.03;;
10041;SDS011;5061;49.068;12.058;2024-02-04T06:57:17;1.20;;;1.10;;
10041;SDS011;5061;49.068;12.058;2024-02-04T07:00:38;1.17;;;0.90;;
10041;SDS011;5061;49.068;12.058;2024-02-04T07:03:59;3.47;;;1.00;;
10041;SDS011;5061;49.068;12.058;2024-02-04T07:07:19;2.20;;;1.00;;
10041;SDS011;5061;49.068;12.058;2024-02-04T07:10:40;1.87;;;1.20;;
10041;SDS011;5061;49.068;12.058;2024-02-04T07:14:01;1.20;;;0.90;;
10041;SDS011;5061;49.068;12.058;2024-02-04T07:17:21;1.20;;;1.10;;
10041;SDS011;5061;49.068;12.058;2024-02-04T07:20:42;1.60;;;1.13;;
10041;SDS011;5061;49.068;12.058;2024-02-04T07:24:02;1.13;;;0.93;;
10041;SDS011;5061;49.068;12.058;2024-02-04T07:27:23;1.00;;;0.90;;
10041;SDS011;5061;49.068;12.058;2024-02-04T07:30:44;2.10;;;1.20;;
10041;SDS011;5061;49.068;12.058;2024-02-04T07:34:05;2.23;;;1.37;;
10041;SDS011;5061;49.068;12.058;2024-02-04T07:37:25;0.80;;;0.80;;
10041;SDS011;5061;49.068;12.058;2024-02-04T07:40:46;1.10;;;1.00;;
10041;SDS011;5061;49.068;12.058;2024-02-04T07:44:07;1.43;;;1.00;;
10041;SDS011;5061;49.068;12.058;2024-02-04T07:47:27;1.57;;;1.00;;
10041;SDS011;5061;49.068;12.058;2024-02-04T07:50:48;1.13;;;1.03;;
10041;SDS011;5061;49.068;12.058;2024-02-04T07:54:08;1.63;;;0.80;;
10041;SDS011;5061;49.068;12.058;2024-02-04T07:57:29;0.80;;;0.80;;
10041;SDS011;5061;49.068;12.058;2024-02-04T08:00:50;1.23;;;1.13;;
10041;SDS011;5061;49.068;12.058;2024-02-04T08:04:10;1.53;;;0.90;;
10041;SDS011;5061;49.068;12.058;2024-02-04T08:07:32;1.63;;;0.80;;
10041;SDS011;5061;49.068;12.058;2024-02-04T08:10:52;1.80;;;0.90;;
10041;SDS011;5061;49.068;12.058;2024-02-04T08:14:13;1.80;;;1.30;;
10041;SDS011;5061;49.068;12.058;2024-02-04T08:17:37;1.20;;;0.90;;
10041;SDS011;5061;49.068;12.058;2024-02-04T08:20:57;1.20;;;1.10;;
10041;SDS011;5061;49.068;12.058;2024-02-04T08:24:18;1.70;;;1.03;;
10041;SDS011;5061;49.068;12.058;2024-02-04T08:27:39;1.50;;;1.20;;
10041;SDS011;5061;49.068;12.058;2024-02-04T08:31:00;1.97;;;1.30;;
10041;SDS011;5061;49.068;12.058;2024-02-04T08:34:20;1.17;;;1.07;;
10041;SDS011;5061;49.068;12.058;2024-02-04T08:37:43;1.00;;;0.90;;
10041;SDS011;5061;49.068;12.058;2024-02-04T08:41:04;0.97;;;0.90;;
10041;SDS011;5061;49.068;12.058;2024-02-04T08:44:25;1.10;;;0.83;;
10041;SDS011;5061;49.068;12.058;2024-02-04T08:47:45;1.70;;;0.83;;
10041;SDS011;5061;49.068;12.058;2024-02-04T08:51:12;1.10;;;1.00;;
10041;SDS011;5061;49.068;12.058;2024-02-04T08:54:35;1.20;;;0.90;;
10041;SDS011;5061;49.068;12.058;2024-02-04T08:57:56;1.80;;;0.90;;
10041;SDS011;5061;49.068;12.058;2024-02-04T09:01:17;9.03;;;1.00;;
10041;SDS011;5061;49.068;12.058;2024-02-04T09:04:38;0.80;;;0.70;;
10041;SDS011;5061;49.068;12.058;2024-02-04T09:08:00;0.80;;;0.80;;
10041;SDS011;5061;49.068;12.058;2024-02-04T09:11:21;0.70;;;0.70;;
10041;SDS011;5061;49.068;12.058;2024-02-04T09:14:44;1.13;;;0.97;;
10041;SDS011;5061;49.068;12.058;2024-02-04T09:18:04;1.00;;;0.87;;
10041;SDS011;5061;49.068;12.058;2024-02-04T09:21:25;1.00;;;0.90;;
10041;SDS011;5061;49.068;12.058;2024-02-04T09:24:46;0.90;;;0.70;;
10041;SDS011;5061;49.068;12.058;2024-02-04T09:28:06;1.00;;;0.90;;
10041;SDS011;5061;49.068;12.058;2024-02-04T09:31:27;1.10;;;0.80;;
10041;SDS011;5061;49.068;12.058;2024-02-04T09:34:48;0.80;;;0.70;;
10041;SDS011;5061;49.068;12.058;2024-02-04T09:38:09;0.83;;;0.70;;
10041;SDS011;5061;49.068;12.058;2024-02-04T09:41:30;0.90;;;0.80;;
10041;SDS011;5061;49.068;12.058;2024-02-04T09:44:50;0.97;;;0.80;;
10041;SDS011;5061;49.068;12.058;2024-02-04T09:48:11;1.00;;;0.90;;
10041;SDS011;5061;49.068;12.058;2024-02-04T09:51:33;0.90;;;0.80;;
10041;SDS011;5061;49.068;12.058;2024-02-04T09:54:55;1.40;;;0.97;;
10041;SDS011;5061;49.068;12.058;2024-02-04T09:58:21;4.63;;;1.57;;
10041;SDS011;5061;49.068;12.058;2024-02-04T10:01:41;1.10;;;0.90;;
10041;SDS011;5061;49.068;12.058;2024-02-04T10:05:03;1.10;;;0.90;;
10041;SDS011;5061;49.068;12.058;2024-02-04T10:08:24;1.50;;;1.10;;
10041;SDS011;5061;49.068;12.058;2024-02-04T10:11:45;2.80;;;1.30;;
10041;SDS011;5061;49.068;12.058;2024-02-04T10:15:05;2.60;;;1.23;;
10041;SDS011;5061;49.068;12.058;2024-02-04T10:18:27;0.90;;;0.80;;
10041;SDS011;5061;49.068;12.058;2024-02-04T10:21:57;1.93;;;1.27;;
10041;SDS011;5061;49.068;12.058;2024-02-04T10:25:21;1.00;;;0.80;;
10041;SDS011;5061;49.068;12.058;2024-02-04T10:28:46;1.00;;;0.87;;
10041;SDS011;5061;49.068;12.058;2024-02-04T10:32:07;2.30;;;0.80;;
10041;SDS011;5061;49.068;12.058;2024-02-04T10:35:28;0.80;;;0.80;;
10041;SDS011;5061;49.068;12.058;2024-02-04T10:38:49;0.70;;;0.70;;
10041;SDS011;5061;49.068;12.058;2024-02-04T10:42:10;0.80;;;0.73;;
10041;SDS011;5061;49.068;12.058;2024-02-04T10:45:34;0.80;;;0.70;;
10041;SDS011;5061;49.068;12.058;2024-02-04T10:48:59;1.13;;;0.73;;
10041;SDS011;5061;49.068;12.058;2024-02-04T10:52:23;1.57;;;1.07;;
10041;SDS011;5061;49.068;12.058;2024-02-04T10:55:53;0.90;;;0.80;;
10041;SDS011;5061;49.068;12.058;2024-02-04T10:59:23;0.80;;;0.70;;
10041;SDS011;5061;49.068;12.058;2024-02-04T11:02:45;0.90;;;0.80;;
10041;SDS011;5061;49.068;12.058;2024-02-04T11:06:07;1.00;;;0.80;;
10041;SDS011;5061;49.068;12.058;2024-02-04T11:09:29;1.20;;;0.70;;
10041;SDS011;5061;49.068;12.058;2024-02-04T11:12:53;0.70;;;0.70;;
10041;SDS011;5061;49.068;12.058;2024-02-04T11:16:20;0.80;;;0.80;;
10041;SDS011;5061;49.068;12.058;2024-02-04T11:20:01;0.73;;;0.70;;
10041;SDS011;5061;49.068;12.058;2024-02-04T11:27:11;0.77;;;0.73;;
10041;SDS011;5061;49.068;12.058;2024-02-04T11:30:32;0.90;;;0.80;;
10041;SDS011;5061;49.068;12.058;2024-02-04T11:33:54;0.70;;;0.60;;
10041;SDS011;5061;49.068;12.058;2024-02-04T11:37:18;1.00;;;0.80;;
10041;SDS011;5061;49.068;12.058;2024-02-04T11:40:42;0.80;;;0.70;;
10041;SDS011;5061;49.068;12.058;2024-02-04T11:44:06;1.10;;;0.90;;
10041;SDS011;5061;49.068;12.058;2024-02-04T11:47:27;0.80;;;0.80;;
10041;SDS011;5061;49.068;12.058;2024-02-04T11:50:52;1.30;;;0.80;;
10041;SDS011;5061;49.068;12.058;2024-02-04T11:54:16;0.90;;;0.80;;
10041;SDS011;5061;49.068;12.058;2024-02-04T11:57:39;0.80;;;0.70;;
10041;SDS011;5061;49.068;12.058;2024-02-04T12:01:00;0.80;;;0.70;;
10041;SDS011;5061;49.068;12.058;2024-02-04T12:04:22;0.90;;;0.60;;
10041;SDS011;5061;49.068;12.058;2024-02-04T12:07:43;0.90;;;0.70;;
10041;SDS011;5061;49.068;12.058;2024-02-04T12:11:04;1.10;;;0.93;;
10041;SDS011;5061;49.068;12.058;2024-02-04T12:14:25;1.20;;;1.00;;
10041;SDS011;5061;49.068;12.058;2024-02-04T12:17:46;1.00;;;0.80;;
10041;SDS011;5061;49.068;12.058;2024-02-04T12:21:06;0.97;;;0.70;;
10041;SDS011;5061;49.068;12.058;2024-02-04T12:24:27;0.70;;;0.70;;
10041;SDS011;5061;49.068;12.058;2024-02-04T12:27:50;0.90;;;0.70;;
10041;SDS011;5061;49.068;12.058;2024-02-04T12:31:18;2.50;;;0.80;;
10041;SDS011;5061;49.068;12.058;2024-02-04T12:34:50;0.93;;;0.70;;
10041;SDS011;5061;49.068;12.058;2024-02-04T12:38:16;0.83;;;0.73;;
10041;SDS011;5061;49.068;12.058;2024-02-04T12:41:37;1.17;;;0.97;;
10041;SDS011;5061;49.068;12.058;2024-02-04T12:44:58;1.37;;;0.90;;
10041;SDS011;5061;49.068;12.058;2024-02-04T12:48:20;1.27;;;1.00;;
10041;SDS011;5061;49.068;12.058;2024-02-04T12:51:43;0.93;;;0.70;;
10041;SDS011;5061;49.068;12.058;2024-02-04T12:55:04;0.70;;;0.60;;
10041;SDS011;5061;49.068;12.058;2024-02-04T12:58:24;0.80;;;0.70;;
10041;SDS011;5061;49.068;12.058;2024-02-04T13:01:46;1.53;;;1.00;;
10041;SDS011;5061;49.068;12.058;2024-02-04T13:05:20;0.70;;;0.70;;
10041;SDS011;5061;49.068;12.058;2024-02-04T13:08:45;1.30;;;0.70;;
10041;SDS011;5061;49.068;12.058;2024-02-04T13:12:06;0.70;;;0.70;;
10041;SDS011;5061;49.068;12.058;2024-02-04T13:15:29;0.80;;;0.67;;
10041;SDS011;5061;49.068;12.058;2024-02-04T13:18:54;1.00;;;0.80;;
10041;SDS011;5061;49.068;12.058;2024-02-04T13:22:14;0.70;;;0.60;;
10041;SDS011;5061;49.068;12.058;2024-02-04T13:25:35;1.10;;;0.70;;
10041;SDS011;5061;49.068;12.058;2024-02-04T13:28:56;0.70;;;0.70;;
10041;SDS011;5061;49.068;12.058;2024-02-04T13:32:17;0.70;;;0.70;;
10041;SDS011;5061;49.068;12.058;2024-02-04T13:35:37;0.80;;;0.70;;
10041;SDS011;5061;49.068;12.058;2024-02-04T13:38:58;0.80;;;0.80;;
10041;SDS011;5061;49.068;12.058;2024-02-04T13:42:19;1.00;;;0.87;;
10041;SDS011;5061;49.068;12.058;2024-02-04T13:45:40;0.80;;;0.80;;
10041;SDS011;5061;49.068;12.058;2024-02-04T13:49:01;1.30;;;1.00;;
10041;SDS011;5061;49.068;12.058;2024-02-04T13:52:22;0.87;;;0.77;;
10041;SDS011;5061;49.068;12.058;2024-02-04T13:55:43;0.80;;;0.70;;
10041;SDS011;5061;49.068;12.058;2024-02-04T13:59:05;1.07;;;0.70;;
10041;SDS011;5061;49.068;12.058;2024-02-04T14:02:26;0.80;;;0.70;;
10041;SDS011;5061;49.068;12.058;2024-02-04T14:05:49;0.70;;;0.70;;
10041;SDS011;5061;49.068;12.058;2024-02-04T14:09:10;0.80;;;0.70;;
10041;SDS011;5061;49.068;12.058;2024-02-04T14:12:33;1.10;;;0.87;;
10041;SDS011;5061;49.068;12.058;2024-02-04T14:15:53;0.80;;;0.70;;
10041;SDS011;5061;49.068;12.058;2024-02-04T14:19:14;0.80;;;0.70;;
10041;SDS011;5061;49.068;12.058;2024-02-04T14:22:35;0.80;;;0.70;;
10041;SDS011;5061;49.068;12.058;2024-02-04T14:25:55;1.00;;;0.80;;
10041;SDS011;5061;49.068;12.058;2024-02-04T14:29:16;1.63;;;0.80;;
10041;SDS011;5061;49.068;12.058;2024-02-04T14:32:37;0.93;;;0.83;;
10041;SDS011;5061;49.068;12.058;2024-02-04T14:35:57;0.80;;;0.70;;
10041;SDS011;5061;49.068;12.058;2024-02-04T14:39:20;1.53;;;0.70;;
10041;SDS011;5061;49.068;12.058;2024-02-04T14:42:40;0.87;;;0.80;;
10041;SDS011;5061;49.068;12.058;2024-02-04T14:46:01;0.80;;;0.70;;
10041;SDS011;5061;49.068;12.058;2024-02-04T14:49:22;0.80;;;0.70;;
10041;SDS011;5061;49.068;12.058;2024-02-04T14:52:42;1.00;;;0.80;;
10041;SDS011;5061;49.068;12.058;2024-02-04T14:56:03;1.17;;;0.80;;
10041;SDS011;5061;49.068;12.058;2024-02-04T14:59:24;0.70;;;0.70;;
10041;SDS011;5061;49.068;12.058;2024-02-04T15:02:44;0.90;;;0.80;;
10041;SDS011;5061;49.068;12.058;2024-02-04T15:06:05;1.00;;;0.90;;
10041;SDS011;5061;49.068;12.058;2024-02-04T15:09:26;0.93;;;0.80;;
10041;SDS011;5061;49.068;12.058;2024-02-04T15:12:46;1.20;;;0.87;;
10041;SDS011;5061;49.068;12.058;2024-02-04T15:16:07;1.83;;;0.97;;
10041;SDS011;5061;49.068;12.058;2024-02-04T15:19:29;1.20;;;0.90;;
10041;SDS011;5061;49.068;12.058;2024-02-04T15:22:50;1.00;;;0.90;;
10041;SDS011;5061;49.068;12.058;2024-02-04T15:26:11;1.00;;;0.90;;
10041;SDS011;5061;49.068;12.058;2024-02-04T15:29:34;2.50;;;1.00;;
10041;SDS011;5061;49.068;12.058;2024-02-04T15:32:56;0.70;;;0.70;;
10041;SDS011;5061;49.068;12.058;2024-02-04T15:36:17;1.00;;;0.90;;
10041;SDS011;5061;49.068;12.058;2024-02-04T15:39:40;1.10;;;0.80;;
10041;SDS011;5061;49.068;12.058;2024-02-04T15:43:02;0.90;;;0.90;;
10041;SDS011;5061;49.068;12.058;2024-02-04T15:46:24;4.10;;;1.53;;
10041;SDS011;5061;49.068;12.058;2024-02-04T15:49:47;1.27;;;0.80;;
10041;SDS011;5061;49.068;12.058;2024-02-04T15:53:07;1.37;;;1.00;;
10041;SDS011;5061;49.068;12.058;2024-02-04T15:56:32;0.80;;;0.80;;
10041;SDS011;5061;49.068;12.058;2024-02-04T15:59:57;1.13;;;0.80;;
10041;SDS011;5061;49.068;12.058;2024-02-04T16:03:21;0.83;;;0.83;;
10041;SDS011;5061;49.068;12.058;2024-02-04T16:06:41;0.80;;;0.80;;
10041;SDS011;5061;49.068;12.058;2024-02-04T16:10:02;1.00;;;0.90;;
10041;SDS011;5061;49.068;12.058;2024-02-04T16:13:23;1.07;;;0.90;;
10041;SDS011;5061;49.068;12.058;2024-02-04T16:16:45;0.80;;;0.80;;
10041;SDS011;5061;49.068;12.058;2024-02-04T16:20:09;2.07;;;1.20;;
10041;SDS011;5061;49.068;12.058;2024-02-04T16:23:31;1.13;;;0.90;;
10041;SDS011;5061;49.068;12.058;2024-02-04T16:26:53;1.33;;;0.80;;
10041;SDS011;5061;49.068;12.058;2024-02-04T16:30:14;0.80;;;0.73;;
10041;SDS011;5061;49.068;12.058;2024-02-04T16:33:36;1.27;;;0.90;;
10041;SDS011;5061;49.068;12.058;2024-02-04T16:36:57;0.93;;;0.87;;
10041;SDS011;5061;49.068;12.058;2024-02-04T16:40:18;1.17;;;0.83;;
10041;SDS011;5061;49.068;12.058;2024-02-04T16:43:38;0.93;;;0.80;;
10041;SDS011;5061;49.068;12.058;2024-02-04T16:46:59;0.87;;;0.83;;
10041;SDS011;5061;49.068;12.058;2024-02-04T16:50:20;1.30;;;1.07;;
10041;SDS011;5061;49.068;12.058;2024-02-04T16:53:41;1.20;;;1.10;;
10041;SDS011;5061;49.068;12.058;2024-02-04T16:57:02;1.43;;;0.83;;
10041;SDS011;5061;49.068;12.058;2024-02-04T17:00:26;1.00;;;0.90;;
10041;SDS011;5061;49.068;12.058;2024-02-04T17:03:47;1.00;;;0.90;;
10041;SDS011;5061;49.068;12.058;2024-02-04T17:07:09;0.90;;;0.90;;
10041;SDS011;5061;49.068;12.058;2024-02-04T17:10:30;0.97;;;0.90;;
10041;SDS011;5061;49.068;12.058;2024-02-04T17:13:52;1.30;;;0.90;;
10041;SDS011;5061;49.068;12.058;2024-02-04T17:17:13;0.77;;;0.67;;
10041;SDS011;5061;49.068;12.058;2024-02-04T17:20:42;0.70;;;0.70;;
10041;SDS011;5061;49.068;12.058;2024-02-04T17:24:15;0.80;;;0.80;;
10041;SDS011;5061;49.068;12.058;2024-02-04T17:27:44;1.10;;;1.00;;
10041;SDS011;5061;49.068;12.058;2024-02-04T17:31:05;0.70;;;0.70;;
10041;SDS011;5061;49.068;12.058;2024-02-04T17:34:26;0.80;;;0.80;;
10041;SDS011;5061;49.068;12.058;2024-02-04T17:37:47;0.90;;;0.80;;
10041;SDS011;5061;49.068;12.058;2024-02-04T17:41:08;1.10;;;1.00;;
10041;SDS011;5061;49.068;12.058;2024-02-04T17:44:28;2.30;;;1.10;;
10041;SDS011;5061;49.068;12.058;2024-02-04T17:47:49;1.10;;;1.00;;
10041;SDS011;5061;49.068;12.058;2024-02-04T17:51:11;1.33;;;1.00;;
10041;SDS011;5061;49.068;12.058;2024-02-04T17:54:32;1.00;;;0.90;;
10041;SDS011;5061;49.068;12.058;2024-02-04T17:57:54;1.07;;;0.80;;
10041;SDS011;5061;49.068;12.058;2024-02-04T18:01:18;1.00;;;0.90;;
10041;SDS011;5061;49.068;12.058;2024-02-04T18:04:43;0.90;;;0.80;;
10041;SDS011;5061;49.068;12.058;2024-02-04T18:08:04;1.23;;;0.80;;
10041;SDS011;5061;49.068;12.058;2024-02-04T18:11:25;0.90;;;0.80;;
10041;SDS011;5061;49.068;12.058;2024-02-04T18:14:47;0.97;;;0.87;;
10041;SDS011;5061;49.068;12.058;2024-02-04T18:18:07;0.80;;;0.80;;
10041;SDS011;5061;49.068;12.058;2024-02-04T18:21:28;0.80;;;0.70;;
10041;SDS011;5061;49.068;12.058;2024-02-04T18:24:49;0.90;;;0.80;;
10041;SDS011;5061;49.068;12.058;2024-02-04T18:28:11;1.20;;;1.10;;
10041;SDS011;5061;49.068;12.058;2024-02-04T18:31:32;1.63;;;0.90;;
10041;SDS011;5061;49.068;12.058;2024-02-04T18:34:54;4.00;;;1.70;;
10041;SDS011;5061;49.068;12.058;2024-02-04T18:38:15;1.60;;;1.13;;
10041;SDS011;5061;49.068;12.058;2024-02-04T18:41:36;0.83;;;0.83;;
10041;SDS011;5061;49.068;12.058;2024-02-04T18:44:59;0.93;;;0.80;;
10041;SDS011;5061;49.068;12.058;2024-02-04T18:48:20;2.63;;;0.90;;
10041;SDS011;5061;49.068;12.058;2024-02-04T18:51:41;1.30;;;1.00;;
10041;SDS011;5061;49.068;12.058;2024-02-04T18:55:06;1.00;;;0.90;;
10041;SDS011;5061;49.068;12.058;2024-02-04T18:58:27;2.53;;;0.80;;
10041;SDS011;5061;49.068;12.058;2024-02-04T19:01:49;1.10;;;0.90;;
10041;SDS011;5061;49.068;12.058;2024-02-04T19:05:10;1.00;;;0.90;;
10041;SDS011;5061;49.068;12.058;2024-02-04T19:08:31;1.00;;;0.80;;
10041;SDS011;5061;49.068;12.058;2024-02-04T19:11:54;2.07;;;0.90;;
10041;SDS011;5061;49.068;12.058;2024-02-04T19:15:15;1.07;;;0.93;;
10041;SDS011;5061;49.068;12.058;2024-02-04T19:18:35;0.80;;;0.80;;
10041;SDS011;5061;49.068;12.058;2024-02-04T19:21:57;0.90;;;0.80;;
10041;SDS011;5061;49.068;12.058;2024-02-04T19:25:20;1.10;;;0.90;;
10041;SDS011;5061;49.068;12.058;2024-02-04T19:28:41;1.30;;;1.00;;
10041;SDS011;5061;49.068;12.058;2024-02-04T19:32:02;1.67;;;0.80;;
10041;SDS011;5061;49.068;12.058;2024-02-04T19:35:25;1.10;;;0.90;;
10041;SDS011;5061;49.068;12.058;2024-02-04T19:38:47;0.80;;;0.80;;
10041;SDS011;5061;49.068;12.058;2024-02-04T19:42:08;1.10;;;1.00;;
10041;SDS011;5061;49.068;12.058;2024-02-04T19:45:29;3.43;;;0.90;;
10041;SDS011;5061;49.068;12.058;2024-02-04T19:48:49;1.20;;;1.10;;
10041;SDS011;5061;49.068;12.058;2024-02-04T19:52:10;1.87;;;1.37;;
10041;SDS011;5061;49.068;12.058;2024-02-04T19:55:32;0.97;;;0.80;;
10041;SDS011;5061;49.068;12.058;2024-02-04T19:58:54;2.97;;;1.40;;
10041;SDS011;5061;49.068;12.058;2024-02-04T20:02:15;1.77;;;1.20;;
10041;SDS011;5061;49.068;12.058;2024-02-04T20:05:36;1.20;;;1.10;;
10041;SDS011;5061;49.068;12.058;2024-02-04T20:08:56;1.07;;;0.90;;
10041;SDS011;5061;49.068;12.058;2024-02-04T20:12:17;1.53;;;1.17;;
10041;SDS011;5061;49.068;12.058;2024-02-04T20:15:40;1.10;;;1.00;;
10041;SDS011;5061;49.068;12.058;2024-02-04T20:19:02;1.40;;;1.07;;